Terminal Aerodrome Forecast
Issued by NWS

Home | Current Version | Previous Version | Text Only | Print | Product List | Glossary On
Versions: 1 2 3 4 5 6 7 8 9 10 11 12 13 14 15 16 17 18
000
FTPA31 PHFO 211730
TAFHTO
TAF
PHTO 211730Z 2118/2218 22005KT P6SM VCSH BKN027 OVC040
     FM212000 05008KT P6SM VCSH SCT025 BKN040
     FM220600 24005KT P6SM VCSH SCT025 BKN040
      AMD LTD TO VIS AND WIND 2209/2216=

USA.gov is the U.S. government's official web portal to all federal, state and local government web resources and services.